createdAt,value
2023-05-23T00:00:48.157Z,15.54
2023-05-23T00:02:50.302Z,15.54
2023-05-23T00:04:59.745Z,15.56
2023-05-23T00:07:06.844Z,15.38
2023-05-23T00:09:09.894Z,15.49
2023-05-23T00:11:13.638Z,15.32
2023-05-23T00:13:15.650Z,15.34
2023-05-23T00:15:17.793Z,15.39
2023-05-23T00:17:21.014Z,15.26
2023-05-23T00:19:23.033Z,15.39
2023-05-23T00:21:25.453Z,15.29
2023-05-23T00:23:29.840Z,15.30
2023-05-23T00:25:34.412Z,15.30
2023-05-23T00:27:36.857Z,15.22
2023-05-23T00:29:38.858Z,15.24
2023-05-23T00:31:40.847Z,15.22
2023-05-23T00:33:42.848Z,15.24
2023-05-23T00:35:44.892Z,15.19
2023-05-23T00:37:50.387Z,15.18
2023-05-23T00:39:53.094Z,15.14
2023-05-23T00:41:55.128Z,15.20
2023-05-23T00:44:00.113Z,15.19
2023-05-23T00:46:02.174Z,14.92
2023-05-23T00:48:05.022Z,15.04
2023-05-23T00:50:11.941Z,15.06
2023-05-23T00:52:15.392Z,15.10
2023-05-23T00:54:24.161Z,15.02
2023-05-23T00:56:26.961Z,15.05
2023-05-23T00:58:29.150Z,15.03
2023-05-23T01:00:32.544Z,15.05
2023-05-23T01:02:37.005Z,14.95
2023-05-23T01:04:39.507Z,14.98
2023-05-23T01:06:41.680Z,14.86
2023-05-23T01:08:43.774Z,14.97
2023-05-23T01:10:45.893Z,14.97
2023-05-23T01:12:50.889Z,14.90
2023-05-23T01:14:59.875Z,14.95
2023-05-23T01:17:11.939Z,14.84
2023-05-23T01:19:36.897Z,14.84
2023-05-23T01:21:40.430Z,14.74
2023-05-23T01:23:48.677Z,14.78
2023-05-23T01:26:02.287Z,14.78
2023-05-23T01:28:08.131Z,14.79
2023-05-23T01:30:12.993Z,14.58
2023-05-23T01:32:16.377Z,14.66
2023-05-23T01:34:19.649Z,14.60
2023-05-23T01:36:22.593Z,14.63
2023-05-23T01:38:24.667Z,14.58
2023-05-23T01:40:26.968Z,14.43
2023-05-23T01:42:29.252Z,14.60
2023-05-23T01:44:33.269Z,14.55
2023-05-23T01:46:36.131Z,14.57
2023-05-23T01:48:40.025Z,14.64
2023-05-23T01:50:45.658Z,14.55
2023-05-23T01:52:48.327Z,14.51
2023-05-23T01:54:52.009Z,14.56
2023-05-23T01:56:54.640Z,14.59
2023-05-23T01:58:56.795Z,14.58
2023-05-23T02:00:59.139Z,14.32
2023-05-23T02:03:01.384Z,14.46
2023-05-23T02:05:03.504Z,14.44
2023-05-23T02:07:06.298Z,14.43
2023-05-23T02:09:08.679Z,14.46
2023-05-23T02:11:10.884Z,14.48
2023-05-23T02:13:12.896Z,14.38
2023-05-23T02:15:15.098Z,14.39
2023-05-23T02:17:17.182Z,14.34
2023-05-23T02:19:19.541Z,14.48
2023-05-23T02:21:21.506Z,14.47
2023-05-23T02:23:23.536Z,14.48
2023-05-23T02:25:25.509Z,14.49
2023-05-23T02:27:27.992Z,14.51
2023-05-23T02:29:30.081Z,14.54
2023-05-23T02:31:32.113Z,14.60
2023-05-23T02:33:34.242Z,14.50
2023-05-23T02:35:36.493Z,14.47
2023-05-23T02:37:38.499Z,14.43
2023-05-23T02:39:40.640Z,14.48
2023-05-23T02:41:42.655Z,14.51
2023-05-23T02:43:47.349Z,14.45
2023-05-23T02:45:49.474Z,14.51
2023-05-23T02:47:51.624Z,14.39
2023-05-23T02:49:53.601Z,14.35
2023-05-23T02:51:55.721Z,14.43
2023-05-23T02:53:57.831Z,14.43
2023-05-23T02:55:59.897Z,14.29
2023-05-23T02:58:01.848Z,14.42
2023-05-23T03:00:04.999Z,14.46
2023-05-23T03:02:07.133Z,14.33
2023-05-23T03:04:09.310Z,14.11
2023-05-23T03:06:14.862Z,14.26
2023-05-23T03:08:16.898Z,14.27
2023-05-23T03:10:19.077Z,14.36
2023-05-23T03:12:21.026Z,14.35
2023-05-23T03:14:23.150Z,14.36
2023-05-23T03:16:25.169Z,14.45
2023-05-23T03:18:27.299Z,14.44
2023-05-23T03:20:29.399Z,14.41
2023-05-23T03:22:31.432Z,14.42
2023-05-23T03:24:33.400Z,14.47
2023-05-23T03:26:35.410Z,14.38
2023-05-23T03:28:37.524Z,14.41
2023-05-23T03:30:39.497Z,14.39
2023-05-23T03:32:41.560Z,14.42
2023-05-23T03:34:43.574Z,14.35
2023-05-23T03:36:45.745Z,14.29
2023-05-23T03:38:47.915Z,14.37
2023-05-23T03:40:49.988Z,14.20
2023-05-23T03:43:04.362Z,14.19
2023-05-23T03:45:07.291Z,14.28
2023-05-23T03:47:09.592Z,14.31
2023-05-23T03:49:11.574Z,14.25
2023-05-23T03:51:13.738Z,14.19
2023-05-23T03:53:15.678Z,14.20
2023-05-23T03:55:17.622Z,14.21
2023-05-23T03:57:19.662Z,14.22
2023-05-23T03:59:21.668Z,14.16
2023-05-23T04:01:23.834Z,14.18
2023-05-23T04:03:27.458Z,14.12
2023-05-23T04:05:29.618Z,14.00
2023-05-23T04:07:34.742Z,14.16
2023-05-23T04:09:36.722Z,14.04
2023-05-23T04:11:38.755Z,14.09
2023-05-23T04:13:40.809Z,14.11
2023-05-23T04:15:43.088Z,14.07
2023-05-23T04:17:45.634Z,14.02
2023-05-23T04:19:47.741Z,13.89
2023-05-23T04:21:49.725Z,14.00
2023-05-23T04:23:52.114Z,14.00
2023-05-23T04:25:54.172Z,13.95
2023-05-23T04:27:56.248Z,14.04
2023-05-23T04:29:58.400Z,14.02
2023-05-23T04:32:01.122Z,13.98
2023-05-23T04:34:04.170Z,13.99
2023-05-23T04:36:09.357Z,13.90
2023-05-23T04:38:13.758Z,13.91
2023-05-23T04:40:16.334Z,13.95
2023-05-23T04:42:18.786Z,13.90
2023-05-23T04:44:21.070Z,14.03
2023-05-23T04:46:26.524Z,14.00
2023-05-23T04:48:28.748Z,13.89
2023-05-23T04:50:33.374Z,13.90
2023-05-23T04:52:35.433Z,14.00
2023-05-23T04:54:37.846Z,13.80
2023-05-23T04:56:40.166Z,13.81
2023-05-23T04:58:42.387Z,13.73
2023-05-23T05:00:44.821Z,13.85
2023-05-23T05:02:47.082Z,13.73
2023-05-23T05:04:49.110Z,13.69
2023-05-23T05:06:51.187Z,13.65
2023-05-23T05:08:53.276Z,13.79
2023-05-23T05:10:55.802Z,13.67
2023-05-23T05:12:57.981Z,13.75
2023-05-23T05:14:59.998Z,13.70
2023-05-23T05:17:03.046Z,13.83
2023-05-23T05:19:05.694Z,13.78
2023-05-23T05:21:08.335Z,13.63
2023-05-23T05:23:10.472Z,13.61
2023-05-23T05:25:12.583Z,13.68
2023-05-23T05:27:14.661Z,13.75
2023-05-23T05:29:16.806Z,13.80
2023-05-23T05:31:19.332Z,13.83
2023-05-23T05:33:24.073Z,13.83
2023-05-23T05:35:26.161Z,13.77
2023-05-23T05:37:28.247Z,13.81
2023-05-23T05:39:30.262Z,13.91
2023-05-23T05:41:32.439Z,13.78
2023-05-23T05:43:34.444Z,13.85
2023-05-23T05:45:37.179Z,13.94
2023-05-23T05:47:39.594Z,13.91
2023-05-23T05:49:42.236Z,13.90
2023-05-23T05:51:44.245Z,13.83
2023-05-23T05:53:46.535Z,13.92
2023-05-23T05:55:48.650Z,13.89
2023-05-23T05:57:50.860Z,14.02
2023-05-23T05:59:52.894Z,13.94
2023-05-23T06:01:54.987Z,13.89
2023-05-23T06:03:57.573Z,13.88
2023-05-23T06:06:00.207Z,13.88
2023-05-23T06:08:02.268Z,13.86
2023-05-23T06:10:04.979Z,13.95
2023-05-23T06:12:07.127Z,13.80
2023-05-23T06:14:09.718Z,14.03
2023-05-23T06:16:12.399Z,14.15
2023-05-23T06:18:14.518Z,14.10
2023-05-23T06:20:16.594Z,14.14
2023-05-23T06:22:18.880Z,14.15
2023-05-23T06:24:21.014Z,14.17
2023-05-23T06:26:23.271Z,14.12
2023-05-23T06:28:25.356Z,14.20
2023-05-23T06:30:28.328Z,14.25
2023-05-23T06:32:30.415Z,14.30
2023-05-23T06:34:32.476Z,14.42
2023-05-23T06:36:34.794Z,14.39
2023-05-23T06:38:36.940Z,14.29
2023-05-23T06:40:39.308Z,14.31
2023-05-23T06:42:42.132Z,14.49
2023-05-23T06:44:44.279Z,14.49
2023-05-23T06:46:46.993Z,14.46
2023-05-23T06:48:54.269Z,14.55
2023-05-23T06:51:01.557Z,14.65
2023-05-23T06:53:03.740Z,14.68
2023-05-23T06:55:06.648Z,14.80
2023-05-23T06:57:08.879Z,14.91
2023-05-23T06:59:11.170Z,14.70
2023-05-23T07:01:13.507Z,14.87
2023-05-23T07:03:16.933Z,14.88
2023-05-23T07:05:19.180Z,15.05
2023-05-23T07:07:21.451Z,14.94
2023-05-23T07:09:23.653Z,15.09
2023-05-23T07:11:27.120Z,15.01
2023-05-23T07:13:29.376Z,15.14
2023-05-23T07:15:31.460Z,15.26
2023-05-23T07:17:33.749Z,15.21
2023-05-23T07:19:36.057Z,15.19
2023-05-23T07:21:38.243Z,15.34
2023-05-23T07:23:41.346Z,15.44
2023-05-23T07:25:53.933Z,15.44
2023-05-23T07:28:03.780Z,15.45
2023-05-23T07:30:07.326Z,15.52
2023-05-23T07:32:09.502Z,15.64
2023-05-23T07:34:11.752Z,15.63
2023-05-23T07:36:14.063Z,15.66
2023-05-23T07:38:16.132Z,15.75
2023-05-23T07:40:18.560Z,15.61
2023-05-23T07:42:20.652Z,15.66
2023-05-23T07:44:24.957Z,15.75
2023-05-23T07:46:27.664Z,15.75
2023-05-23T07:48:30.125Z,15.81
2023-05-23T07:50:32.367Z,15.74
2023-05-23T07:52:34.536Z,15.93
2023-05-23T07:54:36.830Z,15.99
2023-05-23T07:56:39.780Z,16.07
2023-05-23T07:58:42.395Z,16.16
2023-05-23T08:00:46.480Z,16.25
2023-05-23T08:02:48.881Z,16.31
2023-05-23T08:04:51.794Z,16.20
2023-05-23T08:07:04.869Z,16.21
2023-05-23T08:09:08.243Z,16.37
2023-05-23T08:11:10.691Z,16.47
2023-05-23T08:13:13.332Z,16.43
2023-05-23T08:15:15.637Z,16.45
2023-05-23T08:17:17.913Z,16.47
2023-05-23T08:19:20.336Z,16.48
2023-05-23T08:21:24.341Z,16.46
2023-05-23T08:23:26.531Z,16.33
2023-05-23T08:25:31.172Z,16.43
2023-05-23T08:27:34.115Z,16.45
2023-05-23T08:29:37.584Z,16.64
2023-05-23T08:31:39.903Z,16.48
2023-05-23T08:33:42.744Z,16.57
2023-05-23T08:35:45.063Z,16.57
2023-05-23T08:37:47.217Z,16.65
2023-05-23T08:39:49.430Z,16.67
2023-05-23T08:41:51.603Z,16.43
2023-05-23T08:43:54.263Z,16.73
2023-05-23T08:45:57.580Z,16.72
2023-05-23T08:48:02.117Z,16.48
2023-05-23T08:50:08.617Z,16.66
2023-05-23T08:52:13.891Z,16.74
2023-05-23T08:54:17.504Z,16.78
2023-05-23T08:56:20.551Z,16.89
2023-05-23T08:58:25.045Z,16.96
2023-05-23T09:00:28.297Z,17.01
2023-05-23T09:02:32.600Z,16.95
2023-05-23T09:04:34.803Z,17.03
2023-05-23T09:06:37.181Z,16.89
2023-05-23T09:08:39.588Z,17.08
2023-05-23T09:10:43.334Z,17.00
2023-05-23T09:12:45.513Z,17.18
2023-05-23T09:14:48.457Z,17.23
2023-05-23T09:16:50.731Z,17.18
2023-05-23T09:18:53.168Z,17.07
2023-05-23T09:20:55.486Z,17.24
2023-05-23T09:22:57.733Z,17.25
2023-05-23T09:25:01.208Z,17.12
2023-05-23T09:27:03.683Z,17.26
2023-05-23T09:29:07.937Z,17.43
2023-05-23T09:31:10.917Z,17.45
2023-05-23T09:33:15.163Z,17.52
2023-05-23T09:35:21.280Z,17.62
2023-05-23T09:37:31.558Z,17.64
2023-05-23T09:39:38.085Z,17.49
2023-05-23T09:41:40.399Z,17.59
2023-05-23T09:43:48.821Z,17.64
2023-05-23T09:45:51.484Z,17.69
2023-05-23T09:47:53.932Z,17.69
2023-05-23T09:49:56.827Z,17.70
2023-05-23T09:52:00.417Z,17.85
2023-05-23T09:54:02.554Z,17.92
2023-05-23T09:56:05.884Z,17.96
2023-05-23T09:58:09.439Z,18.02
2023-05-23T10:00:14.054Z,18.20
2023-05-23T10:02:17.989Z,18.21
2023-05-23T10:04:24.459Z,18.28
2023-05-23T10:06:43.195Z,18.30
2023-05-23T10:08:52.908Z,18.34
2023-05-23T10:10:57.082Z,18.49
2023-05-23T10:13:03.465Z,18.61
2023-05-23T10:15:07.936Z,18.83
2023-05-23T10:17:17.996Z,18.86
2023-05-23T10:19:27.288Z,18.84
2023-05-23T10:21:36.492Z,18.87
2023-05-23T10:23:41.217Z,18.96
2023-05-23T10:25:44.795Z,19.07
2023-05-23T10:27:52.165Z,19.18
2023-05-23T10:29:56.226Z,19.36
2023-05-23T10:31:59.279Z,19.44
2023-05-23T10:34:10.412Z,19.51
2023-05-23T10:36:19.821Z,19.57
2023-05-23T10:38:28.301Z,19.79
2023-05-23T10:40:33.931Z,19.84
2023-05-23T10:42:49.184Z,19.85
2023-05-23T10:44:51.452Z,19.95
2023-05-23T10:46:57.840Z,20.00
2023-05-23T10:49:01.698Z,20.13
2023-05-23T10:51:07.633Z,20.05
2023-05-23T10:53:11.502Z,20.21
2023-05-23T10:55:15.705Z,20.38
2023-05-23T10:57:20.856Z,20.32
2023-05-23T10:59:23.259Z,20.09
2023-05-23T11:01:27.548Z,20.41
2023-05-23T11:03:35.472Z,20.39
2023-05-23T11:05:43.660Z,20.30
2023-05-23T11:07:46.188Z,20.35
2023-05-23T11:09:54.630Z,20.49
2023-05-23T11:11:58.451Z,20.52
2023-05-23T11:14:01.333Z,20.67
2023-05-23T11:16:26.994Z,20.81
2023-05-23T11:18:31.186Z,20.83
2023-05-23T11:20:35.361Z,20.85
2023-05-23T11:22:37.717Z,20.82
2023-05-23T11:24:46.472Z,20.70
2023-05-23T11:26:54.811Z,20.80
2023-05-23T11:28:57.998Z,20.78
2023-05-23T11:31:01.142Z,20.92
2023-05-23T11:33:09.662Z,20.99
2023-05-23T11:35:12.271Z,21.13
2023-05-23T11:37:14.856Z,21.02
2023-05-23T11:39:17.125Z,21.13
2023-05-23T11:41:19.905Z,21.17
2023-05-23T11:43:22.322Z,21.21
2023-05-23T11:45:25.184Z,21.42
2023-05-23T11:47:27.613Z,21.28
2023-05-23T11:49:31.600Z,21.39
2023-05-23T11:51:33.988Z,21.51
2023-05-23T11:53:36.385Z,21.63
2023-05-23T11:55:42.177Z,21.66
2023-05-23T11:57:44.512Z,21.69
2023-05-23T11:59:46.881Z,21.76
2023-05-23T12:01:49.269Z,21.93
2023-05-23T12:03:53.023Z,21.83
2023-05-23T12:05:56.037Z,21.80
2023-05-23T12:08:00.561Z,21.74
2023-05-23T12:10:04.664Z,21.97
2023-05-23T12:12:07.342Z,22.03
2023-05-23T12:14:14.377Z,21.71
2023-05-23T12:16:18.486Z,21.88
2023-05-23T12:18:21.279Z,21.87
2023-05-23T12:20:26.892Z,21.92
2023-05-23T12:22:29.132Z,21.96
2023-05-23T12:24:31.527Z,21.92
2023-05-23T12:26:34.006Z,21.97
2023-05-23T12:28:43.656Z,21.89
2023-05-23T12:30:45.902Z,21.91
2023-05-23T12:32:48.330Z,22.22
2023-05-23T12:34:50.844Z,22.34
2023-05-23T12:37:10.261Z,22.40
2023-05-23T12:39:27.583Z,22.46
2023-05-23T12:41:30.792Z,22.27
2023-05-23T12:43:33.064Z,22.16
2023-05-23T12:45:37.260Z,22.22
2023-05-23T12:47:39.809Z,21.94
2023-05-23T12:49:42.135Z,21.73
2023-05-23T12:51:44.773Z,21.90
2023-05-23T12:53:47.220Z,21.77
2023-05-23T12:55:49.403Z,21.76
2023-05-23T12:57:51.715Z,21.69
2023-05-23T12:59:53.983Z,21.49
2023-05-23T13:01:56.206Z,21.51
2023-05-23T13:03:58.540Z,21.54
2023-05-23T13:06:01.298Z,21.50
2023-05-23T13:08:03.760Z,21.43
2023-05-23T13:10:06.852Z,21.36
2023-05-23T13:12:09.517Z,21.40
2023-05-23T13:14:11.869Z,21.49
2023-05-23T13:16:14.115Z,21.26
2023-05-23T13:18:16.525Z,21.28
2023-05-23T13:20:18.784Z,21.28
2023-05-23T13:22:21.138Z,21.22
2023-05-23T13:24:23.425Z,21.20
2023-05-23T13:26:26.584Z,21.23
2023-05-23T13:28:29.120Z,21.36
2023-05-23T13:30:32.096Z,21.31
2023-05-23T13:32:34.288Z,21.27
2023-05-23T13:34:37.694Z,21.31
2023-05-23T13:36:39.895Z,21.32
2023-05-23T13:38:42.342Z,21.57
2023-05-23T13:40:45.099Z,21.57
2023-05-23T13:42:51.588Z,21.67
2023-05-23T13:44:53.792Z,21.65
2023-05-23T13:46:56.445Z,21.71
2023-05-23T13:48:59.083Z,21.76
2023-05-23T13:51:02.274Z,21.71
2023-05-23T13:53:04.656Z,21.56
2023-05-23T13:55:07.647Z,21.63
2023-05-23T13:57:10.099Z,21.76
2023-05-23T13:59:12.257Z,21.89
2023-05-23T14:01:14.730Z,21.91
2023-05-23T14:03:19.620Z,21.89
2023-05-23T14:05:22.877Z,21.68
2023-05-23T14:07:25.278Z,21.60
2023-05-23T14:09:27.625Z,21.54
2023-05-23T14:11:30.944Z,21.62
2023-05-23T14:13:34.107Z,21.48
2023-05-23T14:15:38.731Z,21.59
2023-05-23T14:17:41.349Z,21.31
2023-05-23T14:19:44.442Z,21.09
2023-05-23T14:21:46.989Z,21.37
2023-05-23T14:23:49.572Z,21.43
2023-05-23T14:25:52.307Z,21.53
2023-05-23T14:27:54.822Z,21.42
2023-05-23T14:29:57.056Z,21.49
2023-05-23T14:32:01.117Z,21.67
2023-05-23T14:34:03.869Z,21.72
2023-05-23T14:36:06.813Z,21.73
2023-05-23T14:38:09.161Z,21.88
2023-05-23T14:40:12.019Z,21.87
2023-05-23T14:42:14.765Z,21.71
2023-05-23T14:44:18.244Z,21.86
2023-05-23T14:46:27.009Z,21.89
2023-05-23T14:48:31.218Z,21.87
2023-05-23T14:50:41.259Z,22.02
2023-05-23T14:52:47.784Z,22.40
2023-05-23T14:54:53.756Z,22.39
2023-05-23T14:57:15.996Z,22.32
2023-05-23T14:59:25.574Z,22.40
2023-05-23T15:01:41.583Z,22.45
2023-05-23T15:03:51.899Z,22.63
2023-05-23T15:05:55.776Z,22.68
2023-05-23T15:08:10.410Z,22.60
2023-05-23T15:10:26.698Z,22.64
2023-05-23T15:12:42.874Z,22.39
2023-05-23T15:15:03.289Z,22.44
2023-05-23T15:17:08.946Z,22.28
2023-05-23T15:19:15.116Z,22.56
2023-05-23T15:21:18.814Z,22.38
2023-05-23T15:26:38.024Z,22.45
2023-05-23T15:28:41.095Z,22.57
2023-05-23T15:35:44.143Z,23.49
2023-05-23T15:38:22.711Z,23.53
2023-05-23T15:40:56.600Z,23.52
2023-05-23T15:43:23.369Z,23.65
2023-05-23T15:45:31.734Z,23.06
2023-05-23T15:47:42.461Z,23.02
2023-05-23T15:49:50.849Z,23.21
2023-05-23T15:52:11.182Z,23.10
2023-05-23T15:54:34.420Z,23.21
2023-05-23T15:56:47.949Z,23.15
2023-05-23T15:58:57.936Z,23.37
2023-05-23T16:01:28.941Z,23.68
2023-05-23T16:03:31.604Z,23.86
2023-05-23T16:05:43.054Z,24.15
2023-05-23T16:07:55.971Z,24.29
2023-05-23T16:12:40.562Z,24.44
2023-05-23T16:17:12.058Z,24.32
2023-05-23T16:19:25.211Z,24.30
2023-05-23T16:21:35.113Z,23.74
2023-05-23T16:23:58.385Z,23.77
2023-05-23T16:26:08.794Z,23.83
2023-05-23T16:28:21.102Z,23.45
2023-05-23T16:33:03.075Z,23.25
2023-05-23T16:35:12.870Z,22.99
2023-05-23T16:37:18.402Z,22.80
2023-05-23T16:39:33.245Z,22.96
2023-05-23T16:41:41.013Z,22.99
2023-05-23T16:43:54.837Z,22.88
2023-05-23T16:46:11.349Z,23.06
2023-05-23T16:48:32.716Z,22.55
2023-05-23T16:50:49.687Z,22.69
2023-05-23T16:53:01.696Z,22.65
2023-05-23T16:55:32.776Z,22.56
2023-05-23T16:57:43.154Z,22.71
2023-05-23T16:59:58.569Z,22.74
2023-05-23T17:02:01.446Z,22.53
2023-05-23T17:04:23.219Z,22.52
2023-05-23T17:06:31.804Z,22.24
2023-05-23T17:08:38.135Z,22.32
2023-05-23T17:11:06.281Z,22.33
2023-05-23T17:13:17.971Z,22.13
2023-05-23T17:15:29.841Z,22.11
2023-05-23T17:17:52.610Z,22.05
2023-05-23T17:23:04.241Z,21.54
2023-05-23T17:25:18.224Z,21.55
2023-05-23T17:27:28.458Z,21.59
2023-05-23T17:29:49.447Z,21.56
2023-05-23T17:31:53.569Z,21.44
2023-05-23T17:34:11.409Z,21.32
2023-05-23T17:36:19.596Z,21.22
2023-05-23T17:38:35.049Z,21.27
2023-05-23T17:43:00.019Z,21.28
2023-05-23T17:45:02.524Z,21.33
2023-05-23T17:47:20.369Z,21.30
2023-05-23T17:49:47.560Z,21.35
2023-05-23T17:51:52.424Z,21.29
2023-05-23T17:53:55.209Z,21.15
2023-05-23T17:55:57.802Z,21.11
2023-05-23T17:58:00.533Z,21.14
2023-05-23T18:00:03.421Z,21.16
2023-05-23T18:02:27.394Z,21.13
2023-05-23T18:04:30.160Z,20.99
2023-05-23T18:06:32.934Z,21.00
2023-05-23T18:08:35.508Z,21.06
2023-05-23T18:10:38.122Z,21.10
2023-05-23T18:12:43.806Z,21.10
2023-05-23T18:14:46.128Z,21.06
2023-05-23T18:16:48.670Z,20.99
2023-05-23T18:18:52.034Z,20.88
2023-05-23T18:20:54.378Z,20.89
2023-05-23T18:22:57.725Z,20.87
2023-05-23T18:25:00.938Z,20.89
2023-05-23T18:27:04.620Z,20.77
2023-05-23T18:29:07.191Z,20.72
2023-05-23T18:31:09.481Z,20.65
2023-05-23T18:33:12.936Z,20.64
2023-05-23T18:35:16.042Z,20.54
2023-05-23T18:37:18.273Z,20.58
2023-05-23T18:39:20.505Z,20.43
2023-05-23T18:41:22.931Z,20.56
2023-05-23T18:43:25.216Z,20.63
2023-05-23T18:45:28.204Z,20.42
2023-05-23T18:47:31.532Z,20.40
2023-05-23T18:49:34.217Z,20.35
2023-05-23T18:51:50.093Z,20.25
2023-05-23T18:53:52.844Z,20.19
2023-05-23T18:55:55.945Z,20.23
2023-05-23T18:57:59.494Z,20.12
2023-05-23T19:00:03.554Z,20.07
2023-05-23T19:02:06.871Z,19.93
2023-05-23T19:04:10.138Z,19.87
2023-05-23T19:06:12.806Z,19.70
2023-05-23T19:08:17.906Z,19.72
2023-05-23T19:10:24.449Z,19.79
2023-05-23T19:12:26.721Z,19.86
2023-05-23T19:14:29.088Z,19.85
2023-05-23T19:16:31.821Z,19.65
2023-05-23T19:18:34.203Z,19.48
2023-05-23T19:20:36.768Z,19.30
2023-05-23T19:22:50.807Z,19.16
2023-05-23T19:24:53.681Z,19.02
2023-05-23T19:26:56.687Z,18.82
2023-05-23T19:28:58.833Z,18.77
2023-05-23T19:31:01.618Z,18.74
2023-05-23T19:33:03.988Z,18.55
2023-05-23T19:35:07.152Z,18.60
2023-05-23T19:37:09.629Z,18.75
2023-05-23T19:39:13.047Z,18.83
2023-05-23T19:41:15.274Z,18.62
2023-05-23T19:43:17.444Z,18.64
2023-05-23T19:45:19.653Z,18.65
2023-05-23T19:47:21.819Z,18.77
2023-05-23T19:49:24.300Z,18.55
2023-05-23T19:51:26.864Z,18.44
2023-05-23T19:53:28.991Z,18.31
2023-05-23T19:55:31.084Z,18.34
2023-05-23T19:57:34.324Z,18.25
2023-05-23T19:59:36.578Z,18.23
2023-05-23T20:01:50.925Z,18.13
2023-05-23T20:03:53.534Z,17.96
2023-05-23T20:05:55.798Z,18.02
2023-05-23T20:07:58.140Z,18.03
2023-05-23T20:10:01.824Z,18.06
2023-05-23T20:12:04.648Z,18.30
2023-05-23T20:14:07.162Z,18.16
2023-05-23T20:16:09.707Z,17.92
2023-05-23T20:18:11.971Z,17.88
2023-05-23T20:20:14.252Z,18.01
2023-05-23T20:22:16.306Z,18.06
2023-05-23T20:24:18.481Z,17.96
2023-05-23T20:26:22.467Z,17.85
2023-05-23T20:28:24.432Z,17.75
2023-05-23T20:30:26.826Z,17.68
2023-05-23T20:32:28.949Z,17.58
2023-05-23T20:34:32.039Z,17.62
2023-05-23T20:36:34.236Z,17.45
2023-05-23T20:38:36.445Z,17.51
2023-05-23T20:40:38.713Z,17.48
2023-05-23T20:42:41.050Z,17.37
2023-05-23T20:44:43.288Z,17.43
2023-05-23T20:46:45.663Z,17.14
2023-05-23T20:48:47.961Z,17.29
2023-05-23T20:50:49.951Z,17.19
2023-05-23T20:52:52.007Z,17.19
2023-05-23T20:54:54.907Z,17.21
2023-05-23T20:56:56.963Z,17.20
2023-05-23T20:59:00.550Z,17.27
2023-05-23T21:01:02.840Z,17.16
2023-05-23T21:03:05.140Z,17.11
2023-05-23T21:05:08.677Z,16.97
2023-05-23T21:07:10.909Z,16.87
2023-05-23T21:09:13.990Z,16.94
2023-05-23T21:11:16.215Z,16.84
2023-05-23T21:13:18.239Z,16.69
2023-05-23T21:15:20.326Z,16.66
2023-05-23T21:17:22.536Z,16.47
2023-05-23T21:19:24.792Z,16.66
2023-05-23T21:21:26.964Z,16.63
2023-05-23T21:23:29.374Z,16.61
2023-05-23T21:25:31.942Z,16.54
2023-05-23T21:27:34.018Z,16.60
2023-05-23T21:29:36.389Z,16.78
2023-05-23T21:31:42.039Z,16.65
2023-05-23T21:33:44.393Z,16.70
2023-05-23T21:35:46.524Z,16.63
2023-05-23T21:37:48.462Z,16.51
2023-05-23T21:39:52.222Z,16.44
2023-05-23T21:41:54.755Z,16.59
2023-05-23T21:43:57.789Z,16.44
2023-05-23T21:45:59.812Z,16.38
2023-05-23T21:48:01.850Z,16.33
2023-05-23T21:50:04.842Z,16.52
2023-05-23T21:52:07.221Z,16.24
2023-05-23T21:54:09.197Z,16.25
2023-05-23T21:56:11.247Z,16.30
2023-05-23T21:58:13.380Z,16.32
2023-05-23T22:00:18.985Z,16.22
2023-05-23T22:02:21.423Z,16.25
2023-05-23T22:04:23.547Z,16.12
2023-05-23T22:06:26.317Z,16.13
2023-05-23T22:08:32.143Z,16.08
2023-05-23T22:10:37.243Z,15.97
2023-05-23T22:12:39.309Z,16.19
2023-05-23T22:14:41.342Z,16.04
2023-05-23T22:16:43.424Z,15.99
2023-05-23T22:20:51.245Z,16.12
2023-05-23T22:22:53.145Z,16.01
2023-05-23T22:24:55.185Z,16.07
2023-05-23T22:26:58.670Z,16.03
2023-05-23T22:29:00.622Z,16.10
2023-05-23T22:31:02.649Z,15.86
2023-05-23T22:33:12.917Z,16.04
2023-05-23T22:35:15.071Z,16.00
2023-05-23T22:37:17.017Z,15.85
2023-05-23T22:39:18.877Z,15.98
2023-05-23T22:41:22.311Z,15.95
2023-05-23T22:43:24.321Z,15.97
2023-05-23T22:45:28.476Z,15.88
2023-05-23T22:47:32.701Z,15.90
2023-05-23T22:49:34.772Z,16.20
2023-05-23T22:51:39.400Z,16.15
2023-05-23T22:53:41.564Z,16.12
2023-05-23T22:55:43.544Z,16.31
2023-05-23T22:57:45.446Z,16.17
2023-05-23T22:59:47.431Z,16.27
2023-05-23T23:01:49.369Z,16.18
2023-05-23T23:03:51.285Z,16.27
2023-05-23T23:05:53.222Z,16.33
2023-05-23T23:07:55.125Z,16.12
2023-05-23T23:09:57.001Z,16.08
2023-05-23T23:11:58.936Z,16.24
2023-05-23T23:14:00.800Z,16.10
2023-05-23T23:16:02.764Z,16.16
2023-05-23T23:18:05.993Z,15.95
2023-05-23T23:20:10.009Z,16.09
2023-05-23T23:22:12.109Z,16.00
2023-05-23T23:24:14.049Z,16.02
2023-05-23T23:26:15.983Z,16.08
2023-05-23T23:28:18.413Z,16.02
2023-05-23T23:30:20.456Z,16.00
2023-05-23T23:32:22.464Z,16.06
2023-05-23T23:34:24.533Z,16.17
2023-05-23T23:36:26.420Z,16.15
2023-05-23T23:38:28.325Z,15.95
2023-05-23T23:40:30.260Z,16.05
2023-05-23T23:42:32.103Z,16.14
2023-05-23T23:44:33.976Z,16.13
2023-05-23T23:46:35.935Z,15.97
2023-05-23T23:48:37.808Z,15.98
2023-05-23T23:50:39.964Z,16.08
2023-05-23T23:52:42.180Z,16.21
2023-05-23T23:54:44.062Z,16.03
2023-05-23T23:56:46.156Z,16.17
2023-05-23T23:58:48.125Z,15.96
